Terminal Aerodrome Forecast
Issued by NWS

Current Version | Previous Version | Text Only | Print | Product List | Glossary On
Versions: 1 2 3 4 5 6 7 8 9 10 11 12
000
FTUS42 KMLB 021100
TAFISM
TAF
KISM 021120Z 0212/0312 00000KT P6SM FEW250
     FM021500 10005KT P6SM SCT030
     FM021900 10008KT P6SM SCT050=

USA.gov is the U.S. government's official web portal to all federal, state and local government web resources and services.